sensor_id;sensor_type;location;lat;lon;timestamp;P1;durP1;ratioP1;P2;durP2;ratioP2
64868;SDS011;51349;52.424;10.840;2023-04-24T00:04:27;2.88;;;2.67;;
64868;SDS011;51349;52.424;10.840;2023-04-24T00:09:28;2.78;;;2.58;;
64868;SDS011;51349;52.424;10.840;2023-04-24T00:14:28;2.50;;;2.35;;
64868;SDS011;51349;52.424;10.840;2023-04-24T00:19:29;2.28;;;2.17;;
64868;SDS011;51349;52.424;10.840;2023-04-24T00:24:30;2.30;;;2.20;;
64868;SDS011;51349;52.424;10.840;2023-04-24T00:29:37;2.10;;;2.00;;
64868;SDS011;51349;52.424;10.840;2023-04-24T00:34:43;2.40;;;2.30;;
64868;SDS011;51349;52.424;10.840;2023-04-24T00:39:44;2.15;;;2.05;;
64868;SDS011;51349;52.424;10.840;2023-04-24T00:44:47;2.10;;;2.00;;
64868;SDS011;51349;52.424;10.840;2023-04-24T00:49:48;1.60;;;1.50;;
64868;SDS011;51349;52.424;10.840;2023-04-24T00:54:49;2.30;;;1.90;;
64868;SDS011;51349;52.424;10.840;2023-04-24T00:59:51;1.70;;;1.60;;
64868;SDS011;51349;52.424;10.840;2023-04-24T01:04:53;1.70;;;1.60;;
64868;SDS011;51349;52.424;10.840;2023-04-24T01:09:54;1.45;;;1.45;;
64868;SDS011;51349;52.424;10.840;2023-04-24T01:14:58;2.08;;;1.50;;
64868;SDS011;51349;52.424;10.840;2023-04-24T01:20:01;1.90;;;1.67;;
64868;SDS011;51349;52.424;10.840;2023-04-24T01:25:06;1.63;;;1.50;;
64868;SDS011;51349;52.424;10.840;2023-04-24T01:30:10;1.80;;;1.70;;
64868;SDS011;51349;52.424;10.840;2023-04-24T01:35:11;1.52;;;1.48;;
64868;SDS011;51349;52.424;10.840;2023-04-24T01:40:12;1.90;;;1.60;;
64868;SDS011;51349;52.424;10.840;2023-04-24T01:45:13;1.75;;;1.48;;
64868;SDS011;51349;52.424;10.840;2023-04-24T01:50:14;1.60;;;1.50;;
64868;SDS011;51349;52.424;10.840;2023-04-24T01:55:17;1.70;;;1.60;;
64868;SDS011;51349;52.424;10.840;2023-04-24T02:00:18;1.80;;;1.70;;
64868;SDS011;51349;52.424;10.840;2023-04-24T02:05:29;1.60;;;1.42;;
64868;SDS011;51349;52.424;10.840;2023-04-24T02:10:29;1.75;;;1.50;;
64868;SDS011;51349;52.424;10.840;2023-04-24T02:15:30;1.40;;;1.40;;
64868;SDS011;51349;52.424;10.840;2023-04-24T02:20:36;1.85;;;1.63;;
64868;SDS011;51349;52.424;10.840;2023-04-24T02:25:37;1.75;;;1.55;;
64868;SDS011;51349;52.424;10.840;2023-04-24T02:30:40;1.67;;;1.55;;
64868;SDS011;51349;52.424;10.840;2023-04-24T02:35:41;1.60;;;1.50;;
64868;SDS011;51349;52.424;10.840;2023-04-24T02:40:42;1.40;;;1.30;;
64868;SDS011;51349;52.424;10.840;2023-04-24T02:45:43;1.33;;;1.30;;
64868;SDS011;51349;52.424;10.840;2023-04-24T02:50:44;3.40;;;1.40;;
64868;SDS011;51349;52.424;10.840;2023-04-24T02:55:50;1.35;;;1.35;;
64868;SDS011;51349;52.424;10.840;2023-04-24T03:00:54;2.00;;;1.88;;
64868;SDS011;51349;52.424;10.840;2023-04-24T03:06:00;2.17;;;1.40;;
64868;SDS011;51349;52.424;10.840;2023-04-24T03:11:04;1.45;;;1.38;;
64868;SDS011;51349;52.424;10.840;2023-04-24T03:16:05;2.05;;;1.25;;
64868;SDS011;51349;52.424;10.840;2023-04-24T03:21:06;1.65;;;1.55;;
64868;SDS011;51349;52.424;10.840;2023-04-24T03:26:06;1.80;;;1.70;;
64868;SDS011;51349;52.424;10.840;2023-04-24T03:31:10;1.67;;;1.50;;
64868;SDS011;51349;52.424;10.840;2023-04-24T03:36:11;1.45;;;1.35;;
64868;SDS011;51349;52.424;10.840;2023-04-24T03:41:14;1.50;;;1.40;;
64868;SDS011;51349;52.424;10.840;2023-04-24T03:46:15;1.38;;;1.38;;
64868;SDS011;51349;52.424;10.840;2023-04-24T03:51:16;1.52;;;1.42;;
64868;SDS011;51349;52.424;10.840;2023-04-24T03:56:17;1.50;;;1.30;;
64868;SDS011;51349;52.424;10.840;2023-04-24T04:01:18;1.40;;;1.20;;
64868;SDS011;51349;52.424;10.840;2023-04-24T04:06:22;1.25;;;1.20;;
64868;SDS011;51349;52.424;10.840;2023-04-24T04:11:23;1.88;;;1.30;;
64868;SDS011;51349;52.424;10.840;2023-04-24T04:16:30;1.45;;;1.35;;
64868;SDS011;51349;52.424;10.840;2023-04-24T04:21:31;2.03;;;1.23;;
64868;SDS011;51349;52.424;10.840;2023-04-24T04:26:32;1.08;;;1.08;;
64868;SDS011;51349;52.424;10.840;2023-04-24T04:31:36;1.40;;;1.30;;
64868;SDS011;51349;52.424;10.840;2023-04-24T04:36:37;2.37;;;1.03;;
64868;SDS011;51349;52.424;10.840;2023-04-24T04:41:42;1.17;;;1.05;;
64868;SDS011;51349;52.424;10.840;2023-04-24T04:46:43;1.42;;;1.10;;
64868;SDS011;51349;52.424;10.840;2023-04-24T04:51:47;1.40;;;1.30;;
64868;SDS011;51349;52.424;10.840;2023-04-24T04:56:51;1.00;;;1.00;;
64868;SDS011;51349;52.424;10.840;2023-04-24T05:01:55;2.28;;;1.10;;
64868;SDS011;51349;52.424;10.840;2023-04-24T05:06:56;1.00;;;1.00;;
64868;SDS011;51349;52.424;10.840;2023-04-24T05:12:06;1.20;;;1.20;;
64868;SDS011;51349;52.424;10.840;2023-04-24T05:17:10;1.40;;;1.20;;
64868;SDS011;51349;52.424;10.840;2023-04-24T05:22:11;1.20;;;1.20;;
64868;SDS011;51349;52.424;10.840;2023-04-24T05:27:12;1.10;;;1.10;;
64868;SDS011;51349;52.424;10.840;2023-04-24T05:32:13;2.47;;;1.20;;
64868;SDS011;51349;52.424;10.840;2023-04-24T05:37:14;1.40;;;1.30;;
64868;SDS011;51349;52.424;10.840;2023-04-24T05:42:17;1.30;;;1.17;;
64868;SDS011;51349;52.424;10.840;2023-04-24T05:47:18;1.02;;;1.00;;
64868;SDS011;51349;52.424;10.840;2023-04-24T05:52:19;2.08;;;1.27;;
64868;SDS011;51349;52.424;10.840;2023-04-24T05:57:20;1.10;;;1.10;;
64868;SDS011;51349;52.424;10.840;2023-04-24T06:02:26;1.67;;;1.20;;
64868;SDS011;51349;52.424;10.840;2023-04-24T06:07:29;1.10;;;1.10;;
64868;SDS011;51349;52.424;10.840;2023-04-24T06:12:32;1.95;;;1.20;;
64868;SDS011;51349;52.424;10.840;2023-04-24T06:17:32;1.20;;;1.10;;
64868;SDS011;51349;52.424;10.840;2023-04-24T06:22:36;2.20;;;1.10;;
64868;SDS011;51349;52.424;10.840;2023-04-24T06:27:40;1.00;;;1.00;;
64868;SDS011;51349;52.424;10.840;2023-04-24T06:32:43;1.25;;;1.15;;
64868;SDS011;51349;52.424;10.840;2023-04-24T06:37:45;1.02;;;1.00;;
64868;SDS011;51349;52.424;10.840;2023-04-24T06:42:46;2.25;;;1.13;;
64868;SDS011;51349;52.424;10.840;2023-04-24T06:47:53;1.00;;;1.00;;
64868;SDS011;51349;52.424;10.840;2023-04-24T06:52:56;1.77;;;1.40;;
64868;SDS011;51349;52.424;10.840;2023-04-24T06:57:59;2.40;;;1.60;;
64868;SDS011;51349;52.424;10.840;2023-04-24T07:03:03;1.85;;;1.20;;
64868;SDS011;51349;52.424;10.840;2023-04-24T07:13:30;2.97;;;1.40;;
64868;SDS011;51349;52.424;10.840;2023-04-24T07:18:31;1.27;;;1.17;;
64868;SDS011;51349;52.424;10.840;2023-04-24T07:23:32;1.83;;;1.35;;
64868;SDS011;51349;52.424;10.840;2023-04-24T07:28:35;1.35;;;1.35;;
64868;SDS011;51349;52.424;10.840;2023-04-24T07:33:39;1.60;;;1.50;;
64868;SDS011;51349;52.424;10.840;2023-04-24T07:38:40;1.70;;;1.60;;
64868;SDS011;51349;52.424;10.840;2023-04-24T07:43:44;2.08;;;1.70;;
64868;SDS011;51349;52.424;10.840;2023-04-24T07:48:45;1.70;;;1.60;;
64868;SDS011;51349;52.424;10.840;2023-04-24T07:53:48;1.92;;;1.48;;
64868;SDS011;51349;52.424;10.840;2023-04-24T07:58:48;2.35;;;1.58;;
64868;SDS011;51349;52.424;10.840;2023-04-24T08:03:50;1.70;;;1.60;;
64868;SDS011;51349;52.424;10.840;2023-04-24T08:08:51;1.80;;;1.38;;
64868;SDS011;51349;52.424;10.840;2023-04-24T08:13:52;1.70;;;1.60;;
64868;SDS011;51349;52.424;10.840;2023-04-24T08:18:58;1.17;;;1.13;;
64868;SDS011;51349;52.424;10.840;2023-04-24T08:23:59;1.05;;;1.05;;
64868;SDS011;51349;52.424;10.840;2023-04-24T08:29:05;1.05;;;1.00;;
64868;SDS011;51349;52.424;10.840;2023-04-24T08:34:09;1.35;;;1.25;;
64868;SDS011;51349;52.424;10.840;2023-04-24T08:39:10;1.50;;;1.50;;
64868;SDS011;51349;52.424;10.840;2023-04-24T08:44:11;1.60;;;1.50;;
64868;SDS011;51349;52.424;10.840;2023-04-24T08:49:17;1.65;;;1.50;;
64868;SDS011;51349;52.424;10.840;2023-04-24T08:54:19;1.70;;;1.60;;
64868;SDS011;51349;52.424;10.840;2023-04-24T08:59:21;2.30;;;1.80;;
64868;SDS011;51349;52.424;10.840;2023-04-24T09:04:23;2.30;;;1.70;;
64868;SDS011;51349;52.424;10.840;2023-04-24T09:09:28;1.90;;;1.80;;
64868;SDS011;51349;52.424;10.840;2023-04-24T09:14:31;3.05;;;2.03;;
64868;SDS011;51349;52.424;10.840;2023-04-24T09:19:36;3.85;;;2.17;;
64868;SDS011;51349;52.424;10.840;2023-04-24T09:24:38;2.53;;;2.42;;
64868;SDS011;51349;52.424;10.840;2023-04-24T09:29:39;3.00;;;2.80;;
64868;SDS011;51349;52.424;10.840;2023-04-24T09:34:43;2.65;;;2.55;;
64868;SDS011;51349;52.424;10.840;2023-04-24T09:45:15;2.72;;;2.53;;
64868;SDS011;51349;52.424;10.840;2023-04-24T09:50:18;3.72;;;3.42;;
64868;SDS011;51349;52.424;10.840;2023-04-24T09:55:20;3.40;;;3.20;;
64868;SDS011;51349;52.424;10.840;2023-04-24T10:00:39;4.13;;;3.45;;
64868;SDS011;51349;52.424;10.840;2023-04-24T10:05:40;3.83;;;3.63;;
64868;SDS011;51349;52.424;10.840;2023-04-24T10:10:44;3.50;;;3.30;;
64868;SDS011;51349;52.424;10.840;2023-04-24T10:15:48;3.42;;;3.22;;
64868;SDS011;51349;52.424;10.840;2023-04-24T10:20:56;3.22;;;2.75;;
64868;SDS011;51349;52.424;10.840;2023-04-24T10:26:01;3.30;;;3.10;;
64868;SDS011;51349;52.424;10.840;2023-04-24T10:31:03;3.47;;;3.28;;
64868;SDS011;51349;52.424;10.840;2023-04-24T10:36:07;3.50;;;3.30;;
64868;SDS011;51349;52.424;10.840;2023-04-24T10:41:10;3.08;;;2.88;;
64868;SDS011;51349;52.424;10.840;2023-04-24T10:46:23;3.00;;;2.80;;
64868;SDS011;51349;52.424;10.840;2023-04-24T10:51:43;2.83;;;2.63;;
64868;SDS011;51349;52.424;10.840;2023-04-24T10:56:45;2.40;;;2.30;;
64868;SDS011;51349;52.424;10.840;2023-04-24T11:01:50;2.17;;;2.08;;
64868;SDS011;51349;52.424;10.840;2023-04-24T11:06:54;2.30;;;2.20;;
64868;SDS011;51349;52.424;10.840;2023-04-24T11:12:11;2.50;;;2.30;;
64868;SDS011;51349;52.424;10.840;2023-04-24T11:17:26;2.55;;;2.33;;
64868;SDS011;51349;52.424;10.840;2023-04-24T11:22:32;2.78;;;2.67;;
64868;SDS011;51349;52.424;10.840;2023-04-24T11:27:41;2.47;;;2.38;;
64868;SDS011;51349;52.424;10.840;2023-04-24T11:32:46;2.60;;;2.40;;
64868;SDS011;51349;52.424;10.840;2023-04-24T11:37:48;2.28;;;2.17;;
64868;SDS011;51349;52.424;10.840;2023-04-24T11:42:51;3.22;;;2.13;;
64868;SDS011;51349;52.424;10.840;2023-04-24T11:47:52;2.00;;;1.90;;
64868;SDS011;51349;52.424;10.840;2023-04-24T11:52:53;2.28;;;2.10;;
64868;SDS011;51349;52.424;10.840;2023-04-24T11:57:56;1.88;;;1.80;;
64868;SDS011;51349;52.424;10.840;2023-04-24T12:08:06;1.75;;;1.65;;
64868;SDS011;51349;52.424;10.840;2023-04-24T12:13:08;1.70;;;1.60;;
64868;SDS011;51349;52.424;10.840;2023-04-24T12:18:11;1.55;;;1.45;;
64868;SDS011;51349;52.424;10.840;2023-04-24T12:23:13;1.70;;;1.60;;
64868;SDS011;51349;52.424;10.840;2023-04-24T12:28:14;1.80;;;1.30;;
64868;SDS011;51349;52.424;10.840;2023-04-24T12:33:19;2.17;;;1.50;;
64868;SDS011;51349;52.424;10.840;2023-04-24T12:38:25;1.73;;;1.63;;
64868;SDS011;51349;52.424;10.840;2023-04-24T12:43:26;1.40;;;1.40;;
64868;SDS011;51349;52.424;10.840;2023-04-24T12:48:28;2.00;;;1.90;;
64868;SDS011;51349;52.424;10.840;2023-04-24T12:53:30;2.28;;;2.08;;
64868;SDS011;51349;52.424;10.840;2023-04-24T12:58:31;1.75;;;1.65;;
64868;SDS011;51349;52.424;10.840;2023-04-24T13:03:31;1.60;;;1.50;;
64868;SDS011;51349;52.424;10.840;2023-04-24T13:08:32;1.65;;;1.55;;
64868;SDS011;51349;52.424;10.840;2023-04-24T13:13:33;2.08;;;1.65;;
64868;SDS011;51349;52.424;10.840;2023-04-24T13:18:33;1.65;;;1.55;;
64868;SDS011;51349;52.424;10.840;2023-04-24T13:23:34;1.50;;;1.40;;
64868;SDS011;51349;52.424;10.840;2023-04-24T13:28:35;1.70;;;1.60;;
64868;SDS011;51349;52.424;10.840;2023-04-24T13:33:36;1.70;;;1.60;;
64868;SDS011;51349;52.424;10.840;2023-04-24T13:38:36;1.77;;;1.60;;
64868;SDS011;51349;52.424;10.840;2023-04-24T13:43:37;0.50;;;0.50;;
64868;SDS011;51349;52.424;10.840;2023-04-24T13:48:38;0.98;;;0.90;;
64868;SDS011;51349;52.424;10.840;2023-04-24T13:53:38;1.80;;;1.30;;
64868;SDS011;51349;52.424;10.840;2023-04-24T13:58:41;1.30;;;1.20;;
64868;SDS011;51349;52.424;10.840;2023-04-24T14:03:41;1.27;;;1.27;;
64868;SDS011;51349;52.424;10.840;2023-04-24T14:08:45;1.10;;;1.10;;
64868;SDS011;51349;52.424;10.840;2023-04-24T14:13:46;1.40;;;1.20;;
64868;SDS011;51349;52.424;10.840;2023-04-24T14:18:47;1.13;;;1.13;;
64868;SDS011;51349;52.424;10.840;2023-04-24T14:47:49;1.38;;;1.38;;
64868;SDS011;51349;52.424;10.840;2023-04-24T14:52:50;1.50;;;1.40;;
64868;SDS011;51349;52.424;10.840;2023-04-24T14:57:50;1.20;;;1.20;;
64868;SDS011;51349;52.424;10.840;2023-04-24T15:02:51;1.10;;;1.10;;
64868;SDS011;51349;52.424;10.840;2023-04-24T15:07:52;0.73;;;0.73;;
64868;SDS011;51349;52.424;10.840;2023-04-24T15:12:53;0.60;;;0.60;;
64868;SDS011;51349;52.424;10.840;2023-04-24T15:17:54;0.55;;;0.55;;
64868;SDS011;51349;52.424;10.840;2023-04-24T15:22:55;0.50;;;0.50;;
64868;SDS011;51349;52.424;10.840;2023-04-24T15:27:56;0.50;;;0.50;;
64868;SDS011;51349;52.424;10.840;2023-04-24T15:32:59;0.50;;;0.50;;
64868;SDS011;51349;52.424;10.840;2023-04-24T15:38:00;0.60;;;0.60;;
64868;SDS011;51349;52.424;10.840;2023-04-24T15:43:02;0.70;;;0.70;;
64868;SDS011;51349;52.424;10.840;2023-04-24T15:48:03;1.00;;;1.00;;
64868;SDS011;51349;52.424;10.840;2023-04-24T15:53:04;1.50;;;1.33;;
64868;SDS011;51349;52.424;10.840;2023-04-24T15:58:05;0.90;;;0.90;;
64868;SDS011;51349;52.424;10.840;2023-04-24T16:03:06;0.90;;;0.90;;
64868;SDS011;51349;52.424;10.840;2023-04-24T16:08:06;1.40;;;1.40;;
64868;SDS011;51349;52.424;10.840;2023-04-24T16:13:07;1.35;;;1.30;;
64868;SDS011;51349;52.424;10.840;2023-04-24T16:18:08;1.92;;;1.83;;
64868;SDS011;51349;52.424;10.840;2023-04-24T16:23:08;1.60;;;1.50;;
64868;SDS011;51349;52.424;10.840;2023-04-24T16:28:09;3.95;;;2.13;;
64868;SDS011;51349;52.424;10.840;2023-04-24T16:33:11;2.10;;;1.90;;
64868;SDS011;51349;52.424;10.840;2023-04-24T16:38:11;2.40;;;2.20;;
64868;SDS011;51349;52.424;10.840;2023-04-24T16:43:12;2.42;;;2.22;;
64868;SDS011;51349;52.424;10.840;2023-04-24T16:48:13;4.35;;;1.90;;
64868;SDS011;51349;52.424;10.840;2023-04-24T16:53:13;4.45;;;2.70;;
64868;SDS011;51349;52.424;10.840;2023-04-24T16:58:14;2.50;;;2.30;;
64868;SDS011;51349;52.424;10.840;2023-04-24T17:03:15;3.55;;;3.10;;
64868;SDS011;51349;52.424;10.840;2023-04-24T17:08:16;2.92;;;2.58;;
64868;SDS011;51349;52.424;10.840;2023-04-24T17:13:17;3.75;;;2.88;;
64868;SDS011;51349;52.424;10.840;2023-04-24T17:18:18;5.13;;;3.25;;
64868;SDS011;51349;52.424;10.840;2023-04-24T17:23:19;4.18;;;3.28;;
64868;SDS011;51349;52.424;10.840;2023-04-24T17:33:30;3.47;;;3.10;;
64868;SDS011;51349;52.424;10.840;2023-04-24T17:38:31;3.95;;;3.55;;
64868;SDS011;51349;52.424;10.840;2023-04-24T17:43:32;3.97;;;3.30;;
64868;SDS011;51349;52.424;10.840;2023-04-24T17:48:33;4.25;;;3.33;;
64868;SDS011;51349;52.424;10.840;2023-04-24T17:53:34;3.40;;;3.08;;
64868;SDS011;51349;52.424;10.840;2023-04-24T17:58:35;3.35;;;3.05;;
64868;SDS011;51349;52.424;10.840;2023-04-24T18:03:36;5.50;;;2.85;;
64868;SDS011;51349;52.424;10.840;2023-04-24T18:08:37;4.25;;;3.30;;
64868;SDS011;51349;52.424;10.840;2023-04-24T18:13:38;3.35;;;3.05;;
64868;SDS011;51349;52.424;10.840;2023-04-24T18:18:40;5.03;;;3.33;;
64868;SDS011;51349;52.424;10.840;2023-04-24T18:23:40;3.95;;;3.17;;
64868;SDS011;51349;52.424;10.840;2023-04-24T18:28:42;3.33;;;2.90;;
64868;SDS011;51349;52.424;10.840;2023-04-24T18:33:43;3.40;;;3.08;;
64868;SDS011;51349;52.424;10.840;2023-04-24T18:38:43;3.42;;;2.72;;
64868;SDS011;51349;52.424;10.840;2023-04-24T18:43:44;3.20;;;2.40;;
64868;SDS011;51349;52.424;10.840;2023-04-24T18:48:45;2.53;;;2.33;;
64868;SDS011;51349;52.424;10.840;2023-04-24T18:53:45;3.58;;;2.30;;
64868;SDS011;51349;52.424;10.840;2023-04-24T18:58:46;4.23;;;2.40;;
64868;SDS011;51349;52.424;10.840;2023-04-24T19:03:47;3.00;;;2.55;;
64868;SDS011;51349;52.424;10.840;2023-04-24T19:08:48;2.72;;;2.40;;
64868;SDS011;51349;52.424;10.840;2023-04-24T19:13:48;2.70;;;2.53;;
64868;SDS011;51349;52.424;10.840;2023-04-24T19:18:49;3.10;;;2.80;;
64868;SDS011;51349;52.424;10.840;2023-04-24T19:23:50;3.28;;;2.75;;
64868;SDS011;51349;52.424;10.840;2023-04-24T19:28:51;3.00;;;2.80;;
64868;SDS011;51349;52.424;10.840;2023-04-24T19:33:53;2.60;;;2.40;;
64868;SDS011;51349;52.424;10.840;2023-04-24T19:38:55;2.33;;;2.17;;
64868;SDS011;51349;52.424;10.840;2023-04-24T19:43:55;2.40;;;2.20;;
64868;SDS011;51349;52.424;10.840;2023-04-24T20:00:53;3.67;;;2.57;;
64868;SDS011;51349;52.424;10.840;2023-04-24T20:05:54;2.80;;;2.53;;
64868;SDS011;51349;52.424;10.840;2023-04-24T20:10:54;2.50;;;2.30;;
64868;SDS011;51349;52.424;10.840;2023-04-24T20:15:56;3.43;;;2.63;;
64868;SDS011;51349;52.424;10.840;2023-04-24T20:20:57;2.90;;;2.67;;
64868;SDS011;51349;52.424;10.840;2023-04-24T20:25:58;2.50;;;2.23;;
64868;SDS011;51349;52.424;10.840;2023-04-24T20:31:00;2.70;;;2.50;;
64868;SDS011;51349;52.424;10.840;2023-04-24T20:36:00;3.83;;;2.63;;
64868;SDS011;51349;52.424;10.840;2023-04-24T20:41:01;2.63;;;2.40;;
64868;SDS011;51349;52.424;10.840;2023-04-24T20:46:03;3.30;;;2.40;;
64868;SDS011;51349;52.424;10.840;2023-04-24T20:51:04;2.47;;;2.20;;
64868;SDS011;51349;52.424;10.840;2023-04-24T20:56:05;3.07;;;2.43;;
64868;SDS011;51349;52.424;10.840;2023-04-24T21:01:07;3.87;;;2.40;;
64868;SDS011;51349;52.424;10.840;2023-04-24T21:06:08;2.53;;;2.30;;
64868;SDS011;51349;52.424;10.840;2023-04-24T21:11:10;4.30;;;2.67;;
64868;SDS011;51349;52.424;10.840;2023-04-24T21:16:11;2.77;;;2.33;;
64868;SDS011;51349;52.424;10.840;2023-04-24T21:21:11;3.83;;;2.83;;
64868;SDS011;51349;52.424;10.840;2023-04-24T21:26:12;4.10;;;2.50;;
64868;SDS011;51349;52.424;10.840;2023-04-24T21:31:13;3.83;;;2.73;;
64868;SDS011;51349;52.424;10.840;2023-04-24T21:36:13;3.83;;;2.73;;
64868;SDS011;51349;52.424;10.840;2023-04-24T21:41:14;3.47;;;2.37;;
64868;SDS011;51349;52.424;10.840;2023-04-24T21:46:15;2.93;;;2.63;;
64868;SDS011;51349;52.424;10.840;2023-04-24T21:51:15;4.83;;;2.77;;
64868;SDS011;51349;52.424;10.840;2023-04-24T21:56:17;4.53;;;2.90;;
64868;SDS011;51349;52.424;10.840;2023-04-24T22:01:17;5.63;;;2.97;;
64868;SDS011;51349;52.424;10.840;2023-04-24T22:06:18;6.13;;;2.90;;
64868;SDS011;51349;52.424;10.840;2023-04-24T22:11:19;6.40;;;2.97;;
64868;SDS011;51349;52.424;10.840;2023-04-24T22:16:20;4.50;;;3.00;;
64868;SDS011;51349;52.424;10.840;2023-04-24T22:21:22;3.37;;;2.73;;
64868;SDS011;51349;52.424;10.840;2023-04-24T22:26:23;6.30;;;3.00;;
64868;SDS011;51349;52.424;10.840;2023-04-24T22:31:24;6.13;;;3.07;;
64868;SDS011;51349;52.424;10.840;2023-04-24T22:36:25;3.73;;;3.13;;
64868;SDS011;51349;52.424;10.840;2023-04-24T22:41:26;6.27;;;3.53;;
64868;SDS011;51349;52.424;10.840;2023-04-24T22:46:26;4.17;;;3.20;;
64868;SDS011;51349;52.424;10.840;2023-04-24T22:51:27;7.17;;;3.70;;
64868;SDS011;51349;52.424;10.840;2023-04-24T22:56:28;6.37;;;3.90;;
64868;SDS011;51349;52.424;10.840;2023-04-24T23:01:30;8.40;;;3.60;;
64868;SDS011;51349;52.424;10.840;2023-04-24T23:06:31;7.47;;;3.83;;
64868;SDS011;51349;52.424;10.840;2023-04-24T23:11:32;5.13;;;3.67;;
64868;SDS011;51349;52.424;10.840;2023-04-24T23:16:32;6.63;;;4.27;;
64868;SDS011;51349;52.424;10.840;2023-04-24T23:21:36;5.93;;;3.87;;
64868;SDS011;51349;52.424;10.840;2023-04-24T23:26:37;9.37;;;4.70;;
64868;SDS011;51349;52.424;10.840;2023-04-24T23:31:37;5.33;;;4.43;;
64868;SDS011;51349;52.424;10.840;2023-04-24T23:36:38;6.97;;;4.10;;
64868;SDS011;51349;52.424;10.840;2023-04-24T23:41:39;8.30;;;4.03;;
64868;SDS011;51349;52.424;10.840;2023-04-24T23:46:40;9.23;;;4.93;;
64868;SDS011;51349;52.424;10.840;2023-04-24T23:51:40;8.07;;;4.27;;
64868;SDS011;51349;52.424;10.840;2023-04-24T23:56:41;8.87;;;5.00;;
